KACY/ACY METAR and TAF weather

Enter ICAO airport designator
Station Type Date Time Source
KACY METAR 2021/09/23 18:10 UTC NOAA

KACY 231810Z 16017G27KT 10SM FEW015 BKN030 OVC050 27/23 A2986 RMK AO2 PK WND 16031/1758 T02670228


Station Type Date Time Source
KACY Decoded METAR 2021/09/23 18:10 UTC NOAA

ATLANTIC CITY INTERNATIONAL, NJ, United States (KACY) 39-28N 74-35W 35M
Sep 23, 2021 - 02:10 PM EDT / 2021.09.23 1810 UTC
Wind: from the SSE (160 degrees) at 20 MPH (17 KT) gusting to 31 MPH (27 KT):0
Visibility: 10 mile(s):0
Sky conditions: overcast
Temperature: 80.1 F (26.7 C)
Dew Point: 73.0 F (22.8 C)
Relative Humidity: 79%
Pressure (altimeter): 29.86 in. Hg (1011 hPa)
ob: KACY 231810Z 16017G27KT 10SM FEW015 BKN030 OVC050 27/23 A2986 RMK AO2 PK WND 16031/1758 T02670228
cycle: 18

Station Type Date Time Source
KACY TAF 2021/09/23 18:27 UTC NOAA

TAF KACY 231723Z 2318/2418 16018G29KT 6SM -SHRA SCT020 OVC035
FM231900 16016G27KT 5SM SHRA VCTS SCT015 OVC020CB
TEMPO 2320/2323 3SM TSRA OVC015CB
FM232300 20012KT 5SM SHRA OVC015
FM240100 28006KT 6SM -SHRA OVC020
FM240900 30006KT P6SM BKN050
FM241300 33008KT P6SM FEW250

Example: see airport list